Mc Allen Miller International Airport
KMFE : rendu visible

Aérodrome :











RETROUVEZ-NOUS SUR...

 
LOGIN :

S'inscrire | Disclaimer

   EN    FR    IT 

 









Légende :    VFR   VFR Marginal   IFR   IFR Intensif   IFR Très Intensif
Visi : 
Plafond : 
>= 8 km
>= 3000ft
5 à 8 km
1000 à 3000 ft
1500m à 5 km
500 à 1000 ft
800 à 1500m
200 à 500 ft
< 800m
< 200 ft
Symboles :   Orages  Brouillard  Fortes neiges  Fortes précipitations  Vent > 20 kt






- Altitude de l'aérodrome : 107 ft
- Code IATA : MFE


KMFE - Mc Allen Miller International

DERNIER METAR :
  • 231453Z 35005KT 10SM CLR 21/18 A3022 RMK AO2 SLP230 T02110178 51014

METARs EXPIRÉS :
  • 231353Z 35004KT 8SM CLR 19/17 A3021 RMK AO2 SLP227 T01890167
  • 231253Z 34003KT 10SM FEW022 16/16 A3019 RMK AO2 SLP221 T01610156

TAF KMFE
Valide du 23 à 12h jusqu'au 24 à 12h UTC


231129Z 2312/2412 00000KT P6SM FEW012 SCT090
TEMPO 2312/2313 5SM BR
FM231600 07008KT P6SM SCT040 SCT060
FM240300 12009KT P6SM BKN025
FIR KZHU / Amérique du Nord



MET'MAP, la Météo Aéronautique d'un coup d'oeil ! - Copyright ORBIFLY Décembre 2007 - Disclaimer

ORBIFLY MET'MAP TEAM :

Programmation & Développement : Alexandra Zaïnal
Sur une idée originale de : Baudouin d'Aumeries
Assistance à la programmation : Marc-Olivier Méhu
Soutien technique & logistique : Manuel Goepfert

Contact : metmap@orbifly.com




SOURCES & CREDITS :

   NOAA       Earth
Advisory